sensor_id;sensor_type;location;lat;lon;timestamp;pressure;altitude;pressure_sealevel;temperature;humidity
60240;BME280;46102;39.012;-7.064;2023-04-29T00:00:06;98353.28;;;21.34;47.59
60240;BME280;46102;39.012;-7.064;2023-04-29T00:02:14;98343.72;;;21.32;47.57
60240;BME280;46102;39.012;-7.064;2023-04-29T00:04:14;98348.50;;;21.31;47.51
60240;BME280;46102;39.012;-7.064;2023-04-29T00:06:15;98350.91;;;21.33;47.76
60240;BME280;46102;39.012;-7.064;2023-04-29T00:08:17;98364.44;;;21.34;47.56
60240;BME280;46102;39.012;-7.064;2023-04-29T00:10:17;98362.44;;;21.31;47.47
60240;BME280;46102;39.012;-7.064;2023-04-29T00:12:18;98374.78;;;21.34;47.81
60240;BME280;46102;39.012;-7.064;2023-04-29T00:14:19;98364.41;;;21.27;47.76
60240;BME280;46102;39.012;-7.064;2023-04-29T00:16:20;98361.63;;;21.27;47.66
60240;BME280;46102;39.012;-7.064;2023-04-29T00:18:21;98355.63;;;21.25;47.60
60240;BME280;46102;39.012;-7.064;2023-04-29T00:20:21;98356.47;;;21.26;47.57
60240;BME280;46102;39.012;-7.064;2023-04-29T00:22:22;98356.06;;;21.24;47.42
60240;BME280;46102;39.012;-7.064;2023-04-29T00:24:23;98359.63;;;21.24;47.41
60240;BME280;46102;39.012;-7.064;2023-04-29T00:26:24;98365.56;;;21.15;47.63
60240;BME280;46102;39.012;-7.064;2023-04-29T00:28:25;98361.56;;;21.09;47.90
60240;BME280;46102;39.012;-7.064;2023-04-29T00:30:28;98358.78;;;21.09;47.81
60240;BME280;46102;39.012;-7.064;2023-04-29T00:32:28;98365.56;;;21.08;47.44
60240;BME280;46102;39.012;-7.064;2023-04-29T00:34:29;98362.75;;;21.08;47.79
60240;BME280;46102;39.012;-7.064;2023-04-29T00:36:30;98356.38;;;21.04;47.54
60240;BME280;46102;39.012;-7.064;2023-04-29T00:38:31;98360.34;;;21.07;47.80
60240;BME280;46102;39.012;-7.064;2023-04-29T00:40:32;98355.56;;;21.07;48.00
60240;BME280;46102;39.012;-7.064;2023-04-29T00:42:33;98356.78;;;21.06;47.52
60240;BME280;46102;39.012;-7.064;2023-04-29T00:44:34;98358.75;;;20.98;47.96
60240;BME280;46102;39.012;-7.064;2023-04-29T00:46:35;98356.72;;;20.95;47.69
60240;BME280;46102;39.012;-7.064;2023-04-29T00:48:36;98359.91;;;20.97;48.09
60240;BME280;46102;39.012;-7.064;2023-04-29T00:50:37;98357.50;;;20.96;47.66
60240;BME280;46102;39.012;-7.064;2023-04-29T00:52:38;98354.31;;;20.94;48.00
60240;BME280;46102;39.012;-7.064;2023-04-29T00:54:40;98358.69;;;20.91;47.79
60240;BME280;46102;39.012;-7.064;2023-04-29T00:56:44;98354.69;;;20.85;48.21
60240;BME280;46102;39.012;-7.064;2023-04-29T00:58:44;98362.66;;;20.83;48.33
60240;BME280;46102;39.012;-7.064;2023-04-29T01:00:49;98358.25;;;20.82;48.44
60240;BME280;46102;39.012;-7.064;2023-04-29T01:02:51;98348.28;;;20.74;48.34
60240;BME280;46102;39.012;-7.064;2023-04-29T01:04:53;98343.47;;;20.71;48.45
60240;BME280;46102;39.012;-7.064;2023-04-29T01:07:00;98341.47;;;20.68;48.67
60240;BME280;46102;39.012;-7.064;2023-04-29T01:09:17;98343.84;;;20.66;48.60
60240;BME280;46102;39.012;-7.064;2023-04-29T01:11:29;98340.66;;;20.67;48.53
60240;BME280;46102;39.012;-7.064;2023-04-29T01:13:41;98339.06;;;20.66;48.85
60240;BME280;46102;39.012;-7.064;2023-04-29T01:16:01;98343.78;;;20.58;48.91
60240;BME280;46102;39.012;-7.064;2023-04-29T01:18:19;98350.91;;;20.56;49.45
60240;BME280;46102;39.012;-7.064;2023-04-29T01:20:21;98352.88;;;20.52;49.30
60240;BME280;46102;39.012;-7.064;2023-04-29T01:22:23;98354.84;;;20.48;49.68
60240;BME280;46102;39.012;-7.064;2023-04-29T01:24:24;98357.63;;;20.48;49.51
60240;BME280;46102;39.012;-7.064;2023-04-29T01:26:26;98348.88;;;20.49;49.60
60240;BME280;46102;39.012;-7.064;2023-04-29T01:29:00;98340.47;;;20.42;49.66
60240;BME280;46102;39.012;-7.064;2023-04-29T01:31:10;98336.06;;;20.37;50.24
60240;BME280;46102;39.012;-7.064;2023-04-29T01:33:25;98344.41;;;20.34;50.34
60240;BME280;46102;39.012;-7.064;2023-04-29T01:37:45;98349.88;;;20.23;50.46
60240;BME280;46102;39.012;-7.064;2023-04-29T01:42:28;98346.31;;;20.23;50.69
60240;BME280;46102;39.012;-7.064;2023-04-29T01:44:32;98350.69;;;20.20;50.78
60240;BME280;46102;39.012;-7.064;2023-04-29T01:46:35;98355.41;;;20.20;50.63
60240;BME280;46102;39.012;-7.064;2023-04-29T01:48:36;98357.00;;;20.17;50.91
60240;BME280;46102;39.012;-7.064;2023-04-29T01:50:37;98359.78;;;20.13;51.09
60240;BME280;46102;39.012;-7.064;2023-04-29T01:52:45;98358.19;;;20.16;51.13
60240;BME280;46102;39.012;-7.064;2023-04-29T01:54:46;98360.16;;;20.12;50.98
60240;BME280;46102;39.012;-7.064;2023-04-29T01:56:47;98357.75;;;20.10;51.42
60240;BME280;46102;39.012;-7.064;2023-04-29T01:58:58;98367.72;;;20.11;51.46
60240;BME280;46102;39.012;-7.064;2023-04-29T02:01:29;98367.66;;;20.08;51.79
60240;BME280;46102;39.012;-7.064;2023-04-29T02:03:29;98379.97;;;20.03;51.99
60240;BME280;46102;39.012;-7.064;2023-04-29T02:05:31;98375.19;;;20.04;52.15
60240;BME280;46102;39.012;-7.064;2023-04-29T02:07:35;98385.09;;;20.01;52.46
60240;BME280;46102;39.012;-7.064;2023-04-29T02:09:36;98387.47;;;19.99;52.45
60240;BME280;46102;39.012;-7.064;2023-04-29T02:11:42;98391.03;;;19.96;52.80
60240;BME280;46102;39.012;-7.064;2023-04-29T02:13:43;98392.28;;;20.02;52.79
60240;BME280;46102;39.012;-7.064;2023-04-29T02:15:45;98385.84;;;19.94;53.00
60240;BME280;46102;39.012;-7.064;2023-04-29T02:17:47;98394.19;;;19.94;53.18
60240;BME280;46102;39.012;-7.064;2023-04-29T02:19:48;98397.28;;;19.82;53.55
60240;BME280;46102;39.012;-7.064;2023-04-29T02:21:48;98400.84;;;19.83;53.77
60240;BME280;46102;39.012;-7.064;2023-04-29T02:23:51;98398.84;;;19.83;53.87
60240;BME280;46102;39.012;-7.064;2023-04-29T02:25:56;98401.19;;;19.78;53.86
60240;BME280;46102;39.012;-7.064;2023-04-29T02:27:58;98407.13;;;19.72;54.24
60240;BME280;46102;39.012;-7.064;2023-04-29T02:29:59;98399.47;;;19.66;54.56
60240;BME280;46102;39.012;-7.064;2023-04-29T02:31:59;98396.22;;;19.60;54.67
60240;BME280;46102;39.012;-7.064;2023-04-29T02:34:00;98404.97;;;19.62;54.72
60240;BME280;46102;39.012;-7.064;2023-04-29T02:36:01;98407.34;;;19.60;54.96
60240;BME280;46102;39.012;-7.064;2023-04-29T02:38:02;98409.34;;;19.60;55.06
60240;BME280;46102;39.012;-7.064;2023-04-29T02:40:03;98417.25;;;19.58;55.20
60240;BME280;46102;39.012;-7.064;2023-04-29T02:42:05;98420.81;;;19.54;55.27
60240;BME280;46102;39.012;-7.064;2023-04-29T02:44:06;98423.59;;;19.54;55.39
60240;BME280;46102;39.012;-7.064;2023-04-29T02:46:07;98431.59;;;19.60;55.23
60240;BME280;46102;39.012;-7.064;2023-04-29T02:48:08;98423.69;;;19.65;55.33
60240;BME280;46102;39.012;-7.064;2023-04-29T02:50:09;98424.50;;;19.66;55.40
60240;BME280;46102;39.012;-7.064;2023-04-29T02:52:10;98416.97;;;19.66;55.35
60240;BME280;46102;39.012;-7.064;2023-04-29T02:54:12;98422.56;;;19.70;55.42
60240;BME280;46102;39.012;-7.064;2023-04-29T02:56:14;98425.44;;;19.77;55.44
60240;BME280;46102;39.012;-7.064;2023-04-29T02:58:15;98424.63;;;19.73;55.46
60240;BME280;46102;39.012;-7.064;2023-04-29T03:00:16;98414.22;;;19.70;55.69
60240;BME280;46102;39.012;-7.064;2023-04-29T03:02:17;98425.81;;;19.75;55.79
60240;BME280;46102;39.012;-7.064;2023-04-29T03:04:22;98413.06;;;19.71;56.02
60240;BME280;46102;39.012;-7.064;2023-04-29T03:06:23;98425.22;;;19.59;56.19
60240;BME280;46102;39.012;-7.064;2023-04-29T03:08:25;98424.03;;;19.60;56.32
60240;BME280;46102;39.012;-7.064;2023-04-29T03:10:26;98429.59;;;19.60;56.17
60240;BME280;46102;39.012;-7.064;2023-04-29T03:12:27;98424.47;;;19.62;56.11
60240;BME280;46102;39.012;-7.064;2023-04-29T03:14:28;98425.31;;;19.66;56.22
60240;BME280;46102;39.012;-7.064;2023-04-29T03:16:30;98426.81;;;19.60;56.31
60240;BME280;46102;39.012;-7.064;2023-04-29T03:18:30;98427.63;;;19.61;56.47
60240;BME280;46102;39.012;-7.064;2023-04-29T03:20:31;98429.94;;;19.55;56.54
60240;BME280;46102;39.012;-7.064;2023-04-29T03:22:35;98425.59;;;19.58;56.74
60240;BME280;46102;39.012;-7.064;2023-04-29T03:24:37;98418.41;;;19.53;56.93
60240;BME280;46102;39.012;-7.064;2023-04-29T03:26:38;98418.63;;;19.37;57.30
60240;BME280;46102;39.012;-7.064;2023-04-29T03:28:38;98422.53;;;19.32;57.52
60240;BME280;46102;39.012;-7.064;2023-04-29T03:30:39;98419.34;;;19.34;57.59
60240;BME280;46102;39.012;-7.064;2023-04-29T03:32:40;98418.97;;;19.35;57.69
60240;BME280;46102;39.012;-7.064;2023-04-29T03:34:41;98422.53;;;19.32;58.14
60240;BME280;46102;39.012;-7.064;2023-04-29T03:36:55;98417.91;;;19.44;58.04
60240;BME280;46102;39.012;-7.064;2023-04-29T03:38:57;98406.69;;;19.37;58.26
60240;BME280;46102;39.012;-7.064;2023-04-29T03:40:58;98406.19;;;19.27;58.59
60240;BME280;46102;39.012;-7.064;2023-04-29T03:42:58;98406.97;;;19.28;58.81
60240;BME280;46102;39.012;-7.064;2023-04-29T03:45:00;98403.72;;;19.22;59.07
60240;BME280;46102;39.012;-7.064;2023-04-29T03:47:01;98402.94;;;19.22;59.27
60240;BME280;46102;39.012;-7.064;2023-04-29T03:49:02;98399.72;;;19.20;59.23
60240;BME280;46102;39.012;-7.064;2023-04-29T03:51:03;98390.59;;;19.19;59.63
60240;BME280;46102;39.012;-7.064;2023-04-29T03:53:04;98397.72;;;19.17;59.83
60240;BME280;46102;39.012;-7.064;2023-04-29T03:55:05;98396.50;;;19.14;60.25
60240;BME280;46102;39.012;-7.064;2023-04-29T03:57:07;98393.66;;;19.10;60.75
60240;BME280;46102;39.012;-7.064;2023-04-29T03:59:08;98399.56;;;19.09;61.22
60240;BME280;46102;39.012;-7.064;2023-04-29T04:01:10;98413.81;;;19.04;61.55
60240;BME280;46102;39.012;-7.064;2023-04-29T04:03:17;98416.22;;;19.05;61.79
60240;BME280;46102;39.012;-7.064;2023-04-29T04:05:18;98422.00;;;18.93;62.20
60240;BME280;46102;39.012;-7.064;2023-04-29T04:07:24;98426.44;;;18.98;62.62
60240;BME280;46102;39.012;-7.064;2023-04-29T04:10:04;98421.97;;;18.89;62.90
60240;BME280;46102;39.012;-7.064;2023-04-29T04:12:05;98433.41;;;18.84;63.08
60240;BME280;46102;39.012;-7.064;2023-04-29T04:14:07;98433.47;;;18.88;63.19
60240;BME280;46102;39.012;-7.064;2023-04-29T04:16:09;98423.81;;;18.78;64.07
60240;BME280;46102;39.012;-7.064;2023-04-29T04:18:10;98421.34;;;18.77;63.90
60240;BME280;46102;39.012;-7.064;2023-04-29T04:20:13;98422.63;;;18.79;64.38
60240;BME280;46102;39.012;-7.064;2023-04-29T04:22:14;98423.03;;;18.81;65.02
60240;BME280;46102;39.012;-7.064;2023-04-29T04:24:24;98404.69;;;18.77;65.46
60240;BME280;46102;39.012;-7.064;2023-04-29T04:26:25;98388.84;;;18.77;66.35
60240;BME280;46102;39.012;-7.064;2023-04-29T04:28:35;98371.00;;;18.78;67.15
60240;BME280;46102;39.012;-7.064;2023-04-29T04:30:45;98367.69;;;18.69;67.50
60240;BME280;46102;39.012;-7.064;2023-04-29T04:32:46;98363.88;;;18.54;67.78
60240;BME280;46102;39.012;-7.064;2023-04-29T04:34:46;98366.56;;;18.47;67.73
60240;BME280;46102;39.012;-7.064;2023-04-29T04:36:48;98384.09;;;18.51;67.26
60240;BME280;46102;39.012;-7.064;2023-04-29T04:38:49;98385.50;;;18.41;67.26
60240;BME280;46102;39.012;-7.064;2023-04-29T04:40:50;98418.91;;;18.45;66.87
60240;BME280;46102;39.012;-7.064;2023-04-29T04:42:59;98426.72;;;18.39;66.98
60240;BME280;46102;39.012;-7.064;2023-04-29T04:45:00;98435.59;;;18.48;66.79
60240;BME280;46102;39.012;-7.064;2023-04-29T04:47:17;98427.59;;;18.43;66.88
60240;BME280;46102;39.012;-7.064;2023-04-29T04:49:29;98436.84;;;18.51;67.47
60240;BME280;46102;39.012;-7.064;2023-04-29T04:51:31;98458.00;;;18.59;68.02
60240;BME280;46102;39.012;-7.064;2023-04-29T04:53:31;98451.53;;;18.51;68.43
60240;BME280;46102;39.012;-7.064;2023-04-29T04:55:38;98442.72;;;18.46;68.31
60240;BME280;46102;39.012;-7.064;2023-04-29T04:57:39;98434.22;;;18.35;68.78
60240;BME280;46102;39.012;-7.064;2023-04-29T04:59:40;98431.75;;;18.30;69.06
60240;BME280;46102;39.012;-7.064;2023-04-29T05:01:41;98431.69;;;18.26;69.10
60240;BME280;46102;39.012;-7.064;2023-04-29T05:03:41;98441.97;;;18.26;69.18
60240;BME280;46102;39.012;-7.064;2023-04-29T05:05:42;98437.03;;;18.39;68.81
60240;BME280;46102;39.012;-7.064;2023-04-29T05:07:43;98444.06;;;18.33;68.79
60240;BME280;46102;39.012;-7.064;2023-04-29T05:09:45;98439.38;;;18.37;68.77
60240;BME280;46102;39.012;-7.064;2023-04-29T05:11:46;98434.94;;;18.32;68.94
60240;BME280;46102;39.012;-7.064;2023-04-29T05:13:49;98440.50;;;18.32;68.81
60240;BME280;46102;39.012;-7.064;2023-04-29T05:15:52;98434.47;;;18.26;68.94
60240;BME280;46102;39.012;-7.064;2023-04-29T05:17:56;98437.41;;;18.37;69.25
60240;BME280;46102;39.012;-7.064;2023-04-29T05:19:58;98443.34;;;18.36;69.07
60240;BME280;46102;39.012;-7.064;2023-04-29T05:21:59;98449.38;;;18.41;69.29
60240;BME280;46102;39.012;-7.064;2023-04-29T05:24:00;98460.81;;;18.36;69.45
60240;BME280;46102;39.012;-7.064;2023-04-29T05:26:01;98455.19;;;18.33;69.58
60240;BME280;46102;39.012;-7.064;2023-04-29T05:28:01;98455.88;;;18.26;69.66
60240;BME280;46102;39.012;-7.064;2023-04-29T05:30:06;98458.53;;;18.19;69.93
60240;BME280;46102;39.012;-7.064;2023-04-29T05:32:08;98465.25;;;18.18;70.07
60240;BME280;46102;39.012;-7.064;2023-04-29T05:34:09;98472.91;;;18.24;69.86
60240;BME280;46102;39.012;-7.064;2023-04-29T05:36:09;98469.69;;;18.22;70.19
60240;BME280;46102;39.012;-7.064;2023-04-29T05:38:11;98477.66;;;18.24;70.18
60240;BME280;46102;39.012;-7.064;2023-04-29T05:40:14;98475.28;;;18.26;70.36
60240;BME280;46102;39.012;-7.064;2023-04-29T05:42:16;98483.63;;;18.26;70.35
60240;BME280;46102;39.012;-7.064;2023-04-29T05:44:21;98482.47;;;18.27;70.26
60240;BME280;46102;39.012;-7.064;2023-04-29T05:46:22;98492.91;;;18.34;70.10
60240;BME280;46102;39.012;-7.064;2023-04-29T05:48:23;98494.38;;;18.27;70.13
60240;BME280;46102;39.012;-7.064;2023-04-29T05:50:25;98493.47;;;18.20;70.37
60240;BME280;46102;39.012;-7.064;2023-04-29T05:52:25;98498.25;;;18.23;70.16
60240;BME280;46102;39.012;-7.064;2023-04-29T05:54:27;98508.63;;;18.26;70.30
60240;BME280;46102;39.012;-7.064;2023-04-29T05:56:27;98515.84;;;18.30;70.29
60240;BME280;46102;39.012;-7.064;2023-04-29T05:58:29;98521.91;;;18.36;70.16
60240;BME280;46102;39.012;-7.064;2023-04-29T06:00:30;98532.66;;;18.38;70.18
60240;BME280;46102;39.012;-7.064;2023-04-29T06:02:39;98526.53;;;18.28;70.68
60240;BME280;46102;39.012;-7.064;2023-04-29T06:04:44;98534.72;;;18.21;70.90
60240;BME280;46102;39.012;-7.064;2023-04-29T06:07:05;98537.56;;;18.25;70.88
60240;BME280;46102;39.012;-7.064;2023-04-29T06:09:25;98541.38;;;18.17;71.24
60240;BME280;46102;39.012;-7.064;2023-04-29T06:11:26;98530.34;;;18.20;71.38
60240;BME280;46102;39.012;-7.064;2023-04-29T06:13:27;98543.34;;;18.16;71.72
60240;BME280;46102;39.012;-7.064;2023-04-29T06:15:29;98533.44;;;18.15;71.86
60240;BME280;46102;39.012;-7.064;2023-04-29T06:17:30;98537.13;;;18.23;71.67
60240;BME280;46102;39.012;-7.064;2023-04-29T06:19:31;98542.91;;;18.14;72.80
60240;BME280;46102;39.012;-7.064;2023-04-29T06:21:33;98537.22;;;18.07;74.18
60240;BME280;46102;39.012;-7.064;2023-04-29T06:23:34;98543.56;;;18.07;75.23
60240;BME280;46102;39.012;-7.064;2023-04-29T06:25:40;98543.22;;;18.09;75.38
60240;BME280;46102;39.012;-7.064;2023-04-29T06:27:42;98539.22;;;18.06;75.55
60240;BME280;46102;39.012;-7.064;2023-04-29T06:29:43;98547.00;;;18.01;75.67
60240;BME280;46102;39.012;-7.064;2023-04-29T06:31:44;98542.88;;;18.10;75.43
60240;BME280;46102;39.012;-7.064;2023-04-29T06:33:46;98549.22;;;18.11;75.46
60240;BME280;46102;39.012;-7.064;2023-04-29T06:35:46;98546.88;;;18.13;74.89
60240;BME280;46102;39.012;-7.064;2023-04-29T06:38:25;98544.97;;;17.98;75.25
60240;BME280;46102;39.012;-7.064;2023-04-29T06:40:35;98551.78;;;18.00;75.45
60240;BME280;46102;39.012;-7.064;2023-04-29T06:42:50;98553.97;;;18.10;74.55
60240;BME280;46102;39.012;-7.064;2023-04-29T06:45:09;98551.53;;;18.09;74.81
60240;BME280;46102;39.012;-7.064;2023-04-29T06:47:14;98556.88;;;18.18;73.92
60240;BME280;46102;39.012;-7.064;2023-04-29T06:49:22;98556.88;;;18.18;74.13
60240;BME280;46102;39.012;-7.064;2023-04-29T06:51:23;98556.34;;;18.12;74.25
60240;BME280;46102;39.012;-7.064;2023-04-29T06:53:24;98561.53;;;18.14;74.41
60240;BME280;46102;39.012;-7.064;2023-04-29T06:55:25;98564.00;;;18.19;73.86
60240;BME280;46102;39.012;-7.064;2023-04-29T06:57:26;98567.31;;;18.24;73.27
60240;BME280;46102;39.012;-7.064;2023-04-29T06:59:27;98576.31;;;18.18;73.48
60240;BME280;46102;39.012;-7.064;2023-04-29T07:01:27;98571.09;;;18.16;73.49
60240;BME280;46102;39.012;-7.064;2023-04-29T07:03:28;98575.00;;;18.12;73.79
60240;BME280;46102;39.012;-7.064;2023-04-29T07:05:30;98574.63;;;18.13;73.77
60240;BME280;46102;39.012;-7.064;2023-04-29T07:07:31;98578.88;;;18.07;74.13
60240;BME280;46102;39.012;-7.064;2023-04-29T07:09:32;98574.09;;;18.07;73.78
60240;BME280;46102;39.012;-7.064;2023-04-29T07:11:33;98569.06;;;18.13;73.60
60240;BME280;46102;39.012;-7.064;2023-04-29T07:13:34;98578.88;;;18.07;73.56
60240;BME280;46102;39.012;-7.064;2023-04-29T07:15:35;98579.66;;;18.07;73.74
60240;BME280;46102;39.012;-7.064;2023-04-29T07:17:36;98581.19;;;18.05;73.39
60240;BME280;46102;39.012;-7.064;2023-04-29T07:19:38;98580.09;;;18.09;73.46
60240;BME280;46102;39.012;-7.064;2023-04-29T07:21:38;98579.97;;;18.02;73.39
60240;BME280;46102;39.012;-7.064;2023-04-29T07:23:39;98580.28;;;17.97;73.53
60240;BME280;46102;39.012;-7.064;2023-04-29T07:25:40;98583.97;;;18.05;73.28
60240;BME280;46102;39.012;-7.064;2023-04-29T07:27:41;98587.84;;;18.00;73.46
60240;BME280;46102;39.012;-7.064;2023-04-29T07:29:42;98586.00;;;18.08;73.21
60240;BME280;46102;39.012;-7.064;2023-04-29T07:31:43;98595.88;;;18.25;72.44
60240;BME280;46102;39.012;-7.064;2023-04-29T07:33:44;98585.34;;;18.34;71.95
60240;BME280;46102;39.012;-7.064;2023-04-29T07:35:46;98590.88;;;18.34;71.71
60240;BME280;46102;39.012;-7.064;2023-04-29T07:37:48;98591.19;;;18.29;71.89
60240;BME280;46102;39.012;-7.064;2023-04-29T07:39:49;98604.91;;;18.41;71.44
60240;BME280;46102;39.012;-7.064;2023-04-29T07:41:50;98598.56;;;18.64;70.66
60240;BME280;46102;39.012;-7.064;2023-04-29T07:43:51;98616.38;;;18.82;70.12
60240;BME280;46102;39.012;-7.064;2023-04-29T07:45:52;98611.63;;;19.06;69.24
60240;BME280;46102;39.012;-7.064;2023-04-29T07:47:53;98609.84;;;19.47;67.79
60240;BME280;46102;39.012;-7.064;2023-04-29T07:49:54;98612.81;;;19.85;65.76
60240;BME280;46102;39.012;-7.064;2023-04-29T07:51:55;98609.81;;;20.01;64.68
60240;BME280;46102;39.012;-7.064;2023-04-29T07:53:56;98614.63;;;20.04;64.48
60240;BME280;46102;39.012;-7.064;2023-04-29T07:55:57;98614.31;;;20.12;64.00
60240;BME280;46102;39.012;-7.064;2023-04-29T07:57:59;98614.66;;;20.07;64.15
60240;BME280;46102;39.012;-7.064;2023-04-29T08:00:00;98617.50;;;19.81;65.11
60240;BME280;46102;39.012;-7.064;2023-04-29T08:02:01;98617.34;;;19.70;65.56
60240;BME280;46102;39.012;-7.064;2023-04-29T08:04:02;98615.00;;;19.72;65.32
60240;BME280;46102;39.012;-7.064;2023-04-29T08:06:03;98618.03;;;19.90;65.21
60240;BME280;46102;39.012;-7.064;2023-04-29T08:08:04;98625.38;;;20.35;63.58
60240;BME280;46102;39.012;-7.064;2023-04-29T08:10:05;98606.44;;;20.52;62.54
60240;BME280;46102;39.012;-7.064;2023-04-29T08:12:07;98617.59;;;20.55;62.20
60240;BME280;46102;39.012;-7.064;2023-04-29T08:14:08;98619.47;;;20.82;61.67
60240;BME280;46102;39.012;-7.064;2023-04-29T08:16:09;98617.09;;;21.28;60.41
60240;BME280;46102;39.012;-7.064;2023-04-29T08:18:10;98614.91;;;21.59;59.34
60240;BME280;46102;39.012;-7.064;2023-04-29T08:20:11;98613.50;;;21.90;58.36
60240;BME280;46102;39.012;-7.064;2023-04-29T08:22:12;98618.41;;;22.18;57.00
60240;BME280;46102;39.012;-7.064;2023-04-29T08:24:14;98616.91;;;22.46;56.62
60240;BME280;46102;39.012;-7.064;2023-04-29T08:26:15;98616.19;;;22.78;55.19
60240;BME280;46102;39.012;-7.064;2023-04-29T08:28:16;98617.81;;;23.00;54.07
60240;BME280;46102;39.012;-7.064;2023-04-29T08:30:17;98609.44;;;23.18;53.28
60240;BME280;46102;39.012;-7.064;2023-04-29T08:32:18;98603.44;;;23.09;53.17
60240;BME280;46102;39.012;-7.064;2023-04-29T08:34:19;98616.19;;;22.89;53.60
60240;BME280;46102;39.012;-7.064;2023-04-29T08:36:20;98606.22;;;22.91;53.78
60240;BME280;46102;39.012;-7.064;2023-04-29T08:38:21;98611.84;;;23.13;52.82
60240;BME280;46102;39.012;-7.064;2023-04-29T08:40:22;98607.41;;;23.37;52.40
60240;BME280;46102;39.012;-7.064;2023-04-29T08:42:34;98613.34;;;23.82;51.26
60240;BME280;46102;39.012;-7.064;2023-04-29T08:44:36;98616.44;;;24.13;50.34
60240;BME280;46102;39.012;-7.064;2023-04-29T08:46:38;98621.53;;;24.36;49.99
60240;BME280;46102;39.012;-7.064;2023-04-29T08:48:39;98626.31;;;24.46;49.30
60240;BME280;46102;39.012;-7.064;2023-04-29T08:50:41;98624.63;;;24.63;48.22
60240;BME280;46102;39.012;-7.064;2023-04-29T08:52:42;98624.66;;;24.59;48.02
60240;BME280;46102;39.012;-7.064;2023-04-29T08:54:42;98621.09;;;24.41;48.10
60240;BME280;46102;39.012;-7.064;2023-04-29T08:56:45;98613.56;;;24.30;48.06
60240;BME280;46102;39.012;-7.064;2023-04-29T08:58:49;98617.09;;;24.52;47.70
60240;BME280;46102;39.012;-7.064;2023-04-29T09:00:53;98606.53;;;24.71;46.77
60240;BME280;46102;39.012;-7.064;2023-04-29T09:02:56;98604.09;;;24.77;46.07
60240;BME280;46102;39.012;-7.064;2023-04-29T09:05:04;98603.53;;;24.37;47.30
60240;BME280;46102;39.012;-7.064;2023-04-29T09:07:09;98600.81;;;24.15;48.31
60240;BME280;46102;39.012;-7.064;2023-04-29T09:09:12;98609.66;;;24.10;48.43
60240;BME280;46102;39.012;-7.064;2023-04-29T09:11:14;98600.03;;;24.15;48.47
60240;BME280;46102;39.012;-7.064;2023-04-29T09:13:29;98604.28;;;24.44;47.75
60240;BME280;46102;39.012;-7.064;2023-04-29T09:15:35;98594.16;;;24.65;46.78
60240;BME280;46102;39.012;-7.064;2023-04-29T09:17:46;98595.53;;;24.98;45.89
60240;BME280;46102;39.012;-7.064;2023-04-29T09:19:47;98598.56;;;25.18;45.45
60240;BME280;46102;39.012;-7.064;2023-04-29T09:21:53;98597.25;;;25.33;44.59
60240;BME280;46102;39.012;-7.064;2023-04-29T09:23:57;98601.69;;;25.69;44.18
60240;BME280;46102;39.012;-7.064;2023-04-29T09:25:58;98590.13;;;26.01;43.71
60240;BME280;46102;39.012;-7.064;2023-04-29T09:28:14;98592.00;;;26.42;42.64
60240;BME280;46102;39.012;-7.064;2023-04-29T09:30:15;98586.63;;;26.55;42.06
60240;BME280;46102;39.012;-7.064;2023-04-29T09:32:18;98585.59;;;26.42;42.53
60240;BME280;46102;39.012;-7.064;2023-04-29T09:34:35;98577.16;;;26.11;42.81
60240;BME280;46102;39.012;-7.064;2023-04-29T09:38:52;98586.94;;;25.61;43.62
60240;BME280;46102;39.012;-7.064;2023-04-29T09:40:54;98590.22;;;25.56;43.89
60240;BME280;46102;39.012;-7.064;2023-04-29T09:42:56;98580.63;;;25.53;44.11
60240;BME280;46102;39.012;-7.064;2023-04-29T09:44:57;98588.31;;;25.46;44.47
60240;BME280;46102;39.012;-7.064;2023-04-29T09:47:00;98598.56;;;25.63;44.44
60240;BME280;46102;39.012;-7.064;2023-04-29T09:49:03;98608.16;;;26.04;43.42
60240;BME280;46102;39.012;-7.064;2023-04-29T09:51:06;98609.38;;;26.33;42.81
60240;BME280;46102;39.012;-7.064;2023-04-29T09:53:09;98612.84;;;26.45;42.52
60240;BME280;46102;39.012;-7.064;2023-04-29T09:55:10;98606.63;;;26.88;42.00
60240;BME280;46102;39.012;-7.064;2023-04-29T09:57:12;98611.38;;;27.18;40.52
60240;BME280;46102;39.012;-7.064;2023-04-29T09:59:15;98615.78;;;27.19;40.83
60240;BME280;46102;39.012;-7.064;2023-04-29T10:01:18;98611.94;;;27.33;40.44
60240;BME280;46102;39.012;-7.064;2023-04-29T10:03:21;98619.84;;;27.65;39.68
60240;BME280;46102;39.012;-7.064;2023-04-29T10:05:22;98615.13;;;27.78;39.55
60240;BME280;46102;39.012;-7.064;2023-04-29T10:07:27;98626.84;;;27.77;40.13
60240;BME280;46102;39.012;-7.064;2023-04-29T10:09:29;98625.09;;;28.07;39.77
60240;BME280;46102;39.012;-7.064;2023-04-29T10:11:31;98617.91;;;28.42;37.90
60240;BME280;46102;39.012;-7.064;2023-04-29T10:13:34;98619.72;;;28.69;37.11
60240;BME280;46102;39.012;-7.064;2023-04-29T10:15:38;98622.84;;;28.74;37.51
60240;BME280;46102;39.012;-7.064;2023-04-29T10:17:48;98620.91;;;28.88;36.96
60240;BME280;46102;39.012;-7.064;2023-04-29T10:19:59;98623.31;;;28.89;36.96
60240;BME280;46102;39.012;-7.064;2023-04-29T10:22:07;98629.16;;;29.15;36.71
60240;BME280;46102;39.012;-7.064;2023-04-29T10:24:09;98623.84;;;29.00;37.12
60240;BME280;46102;39.012;-7.064;2023-04-29T10:26:12;98629.00;;;29.22;36.96
60240;BME280;46102;39.012;-7.064;2023-04-29T10:28:15;98635.44;;;29.39;36.45
60240;BME280;46102;39.012;-7.064;2023-04-29T10:30:17;98632.25;;;29.37;36.76
60240;BME280;46102;39.012;-7.064;2023-04-29T10:32:18;98622.19;;;29.52;36.28
60240;BME280;46102;39.012;-7.064;2023-04-29T10:34:22;98627.28;;;29.74;35.65
60240;BME280;46102;39.012;-7.064;2023-04-29T10:36:28;98632.63;;;29.84;35.41
60240;BME280;46102;39.012;-7.064;2023-04-29T10:40:40;98625.38;;;29.83;34.64
60240;BME280;46102;39.012;-7.064;2023-04-29T10:42:51;98630.22;;;29.99;35.43
60240;BME280;46102;39.012;-7.064;2023-04-29T10:47:23;98616.31;;;29.76;35.76
60240;BME280;46102;39.012;-7.064;2023-04-29T10:49:33;98617.78;;;29.18;36.26
60240;BME280;46102;39.012;-7.064;2023-04-29T10:53:58;98625.31;;;28.89;37.17
60240;BME280;46102;39.012;-7.064;2023-04-29T10:56:08;98630.84;;;29.12;37.10
60240;BME280;46102;39.012;-7.064;2023-04-29T11:00:37;98628.13;;;29.87;35.92